Time;durP1;ratioP1;P1;durP2;ratioP2;P2;SDS_P1;SDS_P2;PMS_P1;PMS_P2;Temp;Humidity;BMP_temperature;BMP_pressure;BME280_temperature;BME280_humidity;BME280_pressure;Samples;Min_cycle;Max_cycle;Signal;HPM_P1;HPM_P2
2022/04/17 00:01:49;;;;;;;9.70;4.00;;;2.80;99.90;;;;;;5014346;28;20057;-86
2022/04/17 00:04:15;;;;;;;8.52;4.05;;;2.80;99.90;;;;;;4998164;28;20033;-86
2022/04/17 00:06:42;;;;;;;9.77;4.28;;;2.80;99.90;;;;;;5015731;28;20034;-86
2022/04/17 00:09:08;;;;;;;9.23;3.97;;;2.70;99.90;;;;;;4998274;28;20545;-86
2022/04/17 00:11:34;;;;;;;5.97;3.75;;;2.80;99.90;;;;;;5014827;28;20033;-86
2022/04/17 00:14:00;;;;;;;6.78;3.78;;;2.80;99.90;;;;;;4997615;28;20481;-86
2022/04/17 00:16:26;;;;;;;5.97;3.92;;;2.80;99.90;;;;;;5013609;28;20091;-87
2022/04/17 00:18:52;;;;;;;9.75;4.13;;;3.00;99.90;;;;;;4997764;28;20120;-86
2022/04/17 00:21:17;;;;;;;6.10;3.97;;;3.10;99.90;;;;;;5030756;28;20029;-86
2022/04/17 00:23:46;;;;;;;7.22;3.70;;;3.00;99.90;;;;;;5014643;28;20034;-87
2022/04/17 00:26:12;;;;;;;4.50;3.33;;;3.00;99.90;;;;;;4997229;28;20038;-86
2022/04/17 00:28:38;;;;;;;5.25;3.72;;;2.90;99.90;;;;;;5012373;28;20056;-86
2022/04/17 00:31:04;;;;;;;5.25;3.42;;;2.80;99.90;;;;;;5030525;28;20038;-86
2022/04/17 00:33:31;;;;;;;10.07;4.05;;;2.70;99.90;;;;;;4997690;28;20036;-86
2022/04/17 00:35:57;;;;;;;6.85;4.28;;;2.80;99.90;;;;;;4997320;28;20045;-86
2022/04/17 00:38:23;;;;;;;6.50;3.55;;;2.70;99.90;;;;;;5015090;28;20026;-86
2022/04/17 00:40:49;;;;;;;8.10;3.92;;;2.70;99.90;;;;;;4997747;28;20370;-86
2022/04/17 00:43:25;;;;;;;9.43;4.35;;;2.60;99.90;;;;;;4997969;28;20117;-87
2022/04/17 00:45:52;;;;;;;7.88;4.05;;;2.60;99.90;;;;;;5013912;28;20120;-86
2022/04/17 00:48:18;;;;;;;6.90;4.05;;;2.50;99.90;;;;;;5013731;28;20038;-86
2022/04/17 00:50:45;;;;;;;6.18;3.85;;;2.50;99.90;;;;;;4997362;28;20041;-86
2022/04/17 00:53:12;;;;;;;8.52;4.32;;;2.50;99.90;;;;;;5013237;28;20073;-87
2022/04/17 00:55:39;;;;;;;7.13;4.22;;;2.50;99.90;;;;;;4997241;28;20054;-86
2022/04/17 00:58:05;;;;;;;7.25;4.38;;;2.60;99.90;;;;;;4997309;28;20539;-86
2022/04/17 01:00:33;;;;;;;6.13;4.07;;;2.70;99.90;;;;;;5013392;28;20030;-87
2022/04/17 01:02:59;;;;;;;8.57;3.83;;;2.60;99.90;;;;;;4996988;28;20503;-86
2022/04/17 01:05:26;;;;;;;7.35;4.20;;;2.60;99.90;;;;;;5012621;28;20034;-86
2022/04/17 01:07:53;;;;;;;9.93;3.65;;;2.60;99.90;;;;;;5012826;28;20542;-86
2022/04/17 01:10:19;;;;;;;7.10;4.00;;;2.50;99.90;;;;;;4997042;28;20026;-86
2022/04/17 01:12:45;;;;;;;6.82;4.40;;;2.50;99.90;;;;;;5013271;28;20033;-86
2022/04/17 01:15:11;;;;;;;5.03;3.97;;;2.60;99.90;;;;;;4996819;28;20469;-87
2022/04/17 01:17:43;;;;;;;8.65;4.57;;;2.50;99.90;;;;;;4996551;28;20033;-86
2022/04/17 01:20:12;;;;;;;9.05;4.50;;;2.50;99.90;;;;;;4996863;28;20088;-87
2022/04/17 01:22:37;;;;;;;7.32;4.28;;;2.50;99.90;;;;;;4997055;28;20116;-86
2022/04/17 01:27:48;;;;;;;8.77;4.32;;;2.40;99.90;;;;;;5029813;28;20037;-86
2022/04/17 01:30:14;;;;;;;5.55;4.35;;;2.40;99.90;;;;;;4996940;28;20675;-86
2022/04/17 01:32:40;;;;;;;9.15;4.22;;;2.40;99.90;;;;;;4996316;28;20093;-86
2022/04/17 01:35:06;;;;;;;7.38;4.65;;;2.40;99.90;;;;;;5012715;28;20061;-86
2022/04/17 01:37:32;;;;;;;9.93;4.70;;;2.40;99.90;;;;;;4988760;28;20121;-86
2022/04/17 01:39:57;;;;;;;6.75;4.97;;;2.40;99.90;;;;;;4995940;28;20121;-86
2022/04/17 01:42:23;;;;;;;10.90;5.10;;;2.50;99.90;;;;;;4996445;28;20030;-86
2022/04/17 01:44:51;;;;;;;7.07;4.72;;;2.50;99.90;;;;;;4996410;28;20030;-86
2022/04/17 01:47:16;;;;;;;9.25;4.80;;;2.50;99.90;;;;;;4996203;28;20034;-87
2022/04/17 01:50:07;;;;;;;7.47;4.57;;;2.50;99.90;;;;;;4996061;28;20572;-86
2022/04/17 01:52:33;;;;;;;10.45;4.63;;;2.50;99.90;;;;;;5012087;28;20041;-86
2022/04/17 01:54:59;;;;;;;8.20;4.28;;;2.40;99.90;;;;;;4995960;28;20030;-86
2022/04/17 01:57:24;;;;;;;8.25;4.70;;;2.40;99.90;;;;;;4996392;28;20091;-87
2022/04/17 02:00:01;;;;;;;7.68;5.07;;;2.40;99.90;;;;;;4996077;28;20030;-86
2022/04/17 02:02:26;;;;;;;7.85;4.93;;;2.30;99.90;;;;;;5013631;28;20496;-87
2022/04/17 02:04:52;;;;;;;15.95;5.30;;;2.20;99.90;;;;;;5012162;28;20033;-86
2022/04/17 02:07:18;;;;;;;6.78;5.05;;;2.20;99.90;;;;;;5011727;28;20022;-87
2022/04/17 02:09:43;;;;;;;6.88;4.88;;;2.10;99.90;;;;;;5011900;28;20033;-86
2022/04/17 02:12:09;;;;;;;10.90;4.82;;;2.10;99.90;;;;;;4995668;28;20129;-87
2022/04/17 02:14:35;;;;;;;7.95;4.95;;;2.10;99.90;;;;;;4995791;28;20049;-86
2022/04/17 02:17:00;;;;;;;7.55;4.57;;;2.10;99.90;;;;;;4995518;28;20045;-86
2022/04/17 02:19:26;;;;;;;10.45;5.65;;;2.20;99.90;;;;;;4995807;28;20120;-86
2022/04/17 02:21:52;;;;;;;10.75;5.03;;;2.20;99.90;;;;;;4996043;28;20037;-86
2022/04/17 02:24:18;;;;;;;9.30;5.40;;;2.10;99.90;;;;;;4996051;28;20060;-86
2022/04/17 02:26:44;;;;;;;6.53;4.68;;;2.10;99.90;;;;;;4995169;28;20152;-86
2022/04/17 02:29:09;;;;;;;10.27;5.35;;;2.10;99.90;;;;;;4995331;28;20168;-86
2022/04/17 02:31:35;;;;;;;8.23;5.43;;;2.10;99.90;;;;;;4995480;28;20030;-86
2022/04/17 02:34:01;;;;;;;12.00;5.22;;;2.00;99.90;;;;;;4995078;28;20132;-86
2022/04/17 02:36:26;;;;;;;7.95;5.40;;;2.00;99.90;;;;;;4994663;28;20691;-85
2022/04/17 02:39:12;;;;;;;9.80;5.15;;;2.00;99.90;;;;;;4994843;28;20030;-86
2022/04/17 02:41:38;;;;;;;8.45;5.20;;;2.00;99.90;;;;;;4994474;28;20124;-86
2022/04/17 02:44:06;;;;;;;10.07;6.03;;;2.00;99.90;;;;;;4995322;28;20121;-86
2022/04/17 02:49:16;;;;;;;7.40;5.05;;;2.00;99.90;;;;;;5011715;28;20042;-86
2022/04/17 02:51:42;;;;;;;7.75;5.40;;;2.10;99.90;;;;;;4998069;28;20056;-86
2022/04/17 02:54:07;;;;;;;8.10;5.10;;;2.00;99.90;;;;;;4999855;28;20034;-86
2022/04/17 02:56:33;;;;;;;7.18;4.60;;;2.00;99.90;;;;;;4999310;28;20678;-86
2022/04/17 02:58:59;;;;;;;10.15;5.13;;;2.00;99.90;;;;;;4983059;28;20026;-86
2022/04/17 03:06:54;;;;;;;9.60;5.50;;;1.90;99.90;;;;;;5015583;28;20030;-86
2022/04/17 03:09:20;;;;;;;12.45;5.40;;;1.90;99.90;;;;;;4999472;28;20022;-86
2022/04/17 03:11:45;;;;;;;10.35;5.57;;;1.90;99.90;;;;;;4999536;28;20041;-86
2022/04/17 03:14:11;;;;;;;11.15;6.05;;;1.90;99.90;;;;;;4998966;28;20034;-87
2022/04/17 03:16:37;;;;;;;11.38;6.13;;;2.00;99.90;;;;;;4998740;28;20044;-86
2022/04/17 03:19:02;;;;;;;8.20;5.75;;;2.00;99.90;;;;;;4999066;28;20425;-86
2022/04/17 03:21:28;;;;;;;10.00;5.63;;;1.90;99.90;;;;;;4998973;28;20036;-86
2022/04/17 03:23:54;;;;;;;8.80;5.68;;;1.80;99.90;;;;;;4998943;28;20028;-86
2022/04/17 03:26:20;;;;;;;12.50;5.82;;;1.90;99.90;;;;;;4998636;28;20079;-86
2022/04/17 03:28:46;;;;;;;8.90;5.93;;;1.90;99.90;;;;;;4998921;28;20040;-86
2022/04/17 03:31:11;;;;;;;11.05;5.88;;;1.90;99.90;;;;;;4998733;28;20033;-86
2022/04/17 03:33:37;;;;;;;7.82;5.63;;;1.90;99.90;;;;;;4998919;28;20093;-86
2022/04/17 03:36:03;;;;;;;9.35;5.65;;;1.80;99.90;;;;;;4998481;28;20549;-86
2022/04/17 03:38:29;;;;;;;9.85;5.72;;;1.80;99.90;;;;;;4998857;28;20034;-86
2022/04/17 03:40:54;;;;;;;8.88;5.68;;;1.70;99.90;;;;;;4998841;28;20037;-86
2022/04/17 03:43:23;;;;;;;11.82;6.15;;;1.80;99.90;;;;;;4998634;28;20538;-86
2022/04/17 03:45:49;;;;;;;10.65;6.30;;;1.80;99.90;;;;;;5015929;28;20037;-86
2022/04/17 03:48:18;;;;;;;13.25;6.20;;;1.80;99.90;;;;;;4981706;28;20060;-86
2022/04/17 03:50:44;;;;;;;8.68;5.57;;;1.80;99.90;;;;;;4998322;28;20128;-86
2022/04/17 03:53:10;;;;;;;7.10;5.65;;;1.80;99.90;;;;;;4998286;28;20381;-86
2022/04/17 03:55:36;;;;;;;14.68;5.85;;;1.80;99.90;;;;;;4998394;28;20030;-87
2022/04/17 03:58:02;;;;;;;9.20;6.03;;;1.80;99.90;;;;;;4998314;28;20125;-87
2022/04/17 04:00:28;;;;;;;10.82;5.72;;;1.80;99.90;;;;;;5014976;28;20481;-87
2022/04/17 04:02:54;;;;;;;8.27;5.55;;;1.80;99.90;;;;;;4998324;28;20030;-86
2022/04/17 04:05:20;;;;;;;15.68;5.72;;;1.80;99.90;;;;;;4998414;28;20029;-87
2022/04/17 04:07:46;;;;;;;7.68;5.45;;;1.70;99.90;;;;;;5015881;28;20030;-86
2022/04/17 04:10:12;;;;;;;9.55;6.05;;;1.60;99.90;;;;;;4997917;28;20064;-86
2022/04/17 04:12:39;;;;;;;10.23;5.50;;;1.60;99.90;;;;;;4998166;28;20371;-86
2022/04/17 04:15:06;;;;;;;12.02;5.80;;;1.60;99.90;;;;;;4998060;28;20084;-87
2022/04/17 04:17:34;;;;;;;6.50;5.35;;;1.60;99.90;;;;;;4997669;28;20038;-86
2022/04/17 04:20:00;;;;;;;8.63;5.72;;;1.60;99.90;;;;;;4981003;28;20037;-86
2022/04/17 04:22:25;;;;;;;12.05;5.85;;;1.70;99.90;;;;;;4992719;28;20121;-86
2022/04/17 04:24:51;;;;;;;9.75;6.05;;;1.70;99.90;;;;;;4997984;28;20028;-86
2022/04/17 04:30:02;;;;;;;8.23;5.68;;;1.70;99.90;;;;;;5013801;28;20033;-87
2022/04/17 04:32:28;;;;;;;8.25;5.50;;;1.80;99.90;;;;;;4997735;28;20034;-89
2022/04/17 04:34:59;;;;;;;11.50;5.10;;;1.70;99.90;;;;;;5015686;28;20065;-89
2022/04/17 04:37:25;;;;;;;8.70;6.00;;;1.70;99.90;;;;;;4998334;28;20080;-90
2022/04/17 04:39:51;;;;;;;10.60;5.97;;;1.70;99.90;;;;;;4998857;28;20033;-90
2022/04/17 04:42:18;;;;;;;8.25;5.50;;;1.70;99.90;;;;;;4997270;28;20095;-90
2022/04/17 04:44:43;;;;;;;11.95;5.55;;;1.80;99.90;;;;;;4997023;28;20037;-90
2022/04/17 04:47:09;;;;;;;8.82;5.35;;;1.80;99.90;;;;;;4998561;28;20030;-89
2022/04/17 04:49:35;;;;;;;9.43;5.32;;;1.80;99.90;;;;;;4998338;28;20034;-89
2022/04/17 04:52:02;;;;;;;9.48;5.53;;;1.70;99.90;;;;;;4998357;28;20036;-90
2022/04/17 04:54:28;;;;;;;10.52;5.85;;;1.70;99.90;;;;;;5014749;28;20112;-90
2022/04/17 04:56:54;;;;;;;10.75;5.38;;;1.60;99.90;;;;;;5014385;28;20034;-89
2022/04/17 04:59:20;;;;;;;10.80;5.90;;;1.80;99.90;;;;;;4998229;28;20030;-89
2022/04/17 05:01:47;;;;;;;8.05;5.53;;;1.80;99.90;;;;;;4998152;28;20109;-89
2022/04/17 05:04:14;;;;;;;7.95;5.00;;;1.90;99.90;;;;;;4998453;28;20477;-89
2022/04/17 05:06:40;;;;;;;9.10;4.97;;;1.90;99.90;;;;;;4998053;28;20042;-89
2022/04/17 05:09:05;;;;;;;11.35;5.85;;;2.00;99.90;;;;;;4997853;28;20030;-89
2022/04/17 05:11:31;;;;;;;11.55;5.47;;;2.00;99.90;;;;;;4990291;28;20037;-90
2022/04/17 05:13:57;;;;;;;7.68;4.90;;;2.10;99.90;;;;;;4997479;28;20026;-90
2022/04/17 05:16:23;;;;;;;9.02;4.78;;;2.10;99.90;;;;;;4998000;28;20034;-90
2022/04/17 05:18:56;;;;;;;7.70;4.88;;;2.20;99.90;;;;;;5014187;28;20034;-89
2022/04/17 05:21:31;;;;;;;7.25;4.88;;;2.20;99.90;;;;;;5014108;28;20049;-90
2022/04/17 05:23:57;;;;;;;8.50;5.15;;;2.30;99.90;;;;;;4997516;28;20030;-90
2022/04/17 05:26:23;;;;;;;7.97;5.10;;;2.40;99.90;;;;;;4996715;28;20375;-90
2022/04/17 05:28:50;;;;;;;9.25;4.53;;;2.50;99.90;;;;;;4995975;28;20041;-90
2022/04/17 05:31:16;;;;;;;11.48;4.63;;;2.50;99.90;;;;;;4997892;28;20441;-90
2022/04/17 05:33:42;;;;;;;5.70;5.05;;;2.60;99.90;;;;;;4997657;28;20029;-90
2022/04/17 05:36:08;;;;;;;8.13;4.32;;;2.70;99.90;;;;;;4997313;28;20469;-90
2022/04/17 05:38:34;;;;;;;7.40;4.68;;;2.90;99.90;;;;;;4997844;28;20045;-90
2022/04/17 05:40:59;;;;;;;7.97;4.88;;;3.00;99.90;;;;;;4997804;28;20022;-90
2022/04/17 05:43:26;;;;;;;6.50;4.47;;;3.10;99.90;;;;;;4997318;28;20021;-91
2022/04/17 05:45:52;;;;;;;5.97;4.18;;;3.20;99.90;;;;;;5013638;28;20026;-90
2022/04/17 05:48:21;;;;;;;9.13;4.45;;;3.30;99.90;;;;;;4997185;28;20096;-90
2022/04/17 05:50:46;;;;;;;6.55;5.13;;;3.50;99.90;;;;;;4997058;28;20030;-91
2022/04/17 05:53:12;;;;;;;8.13;4.07;;;3.60;99.90;;;;;;4980968;28;20053;-90
2022/04/17 05:55:40;;;;;;;7.90;4.18;;;3.70;99.90;;;;;;4996979;28;20038;-90
2022/04/17 05:58:06;;;;;;;7.30;4.85;;;3.80;99.90;;;;;;5029976;28;20038;-90
2022/04/17 06:00:31;;;;;;;11.05;4.95;;;4.00;99.90;;;;;;5012974;28;20496;-90
2022/04/17 06:02:57;;;;;;;5.90;4.00;;;4.10;99.90;;;;;;4996954;28;20556;-90
2022/04/17 06:05:23;;;;;;;6.53;4.30;;;4.20;99.90;;;;;;5013168;28;20686;-90
2022/04/17 06:07:49;;;;;;;5.22;3.83;;;4.20;99.90;;;;;;4997123;28;20400;-91
2022/04/17 06:10:15;;;;;;;10.70;4.80;;;4.30;99.90;;;;;;4997061;28;20512;-89
2022/04/17 06:12:41;;;;;;;8.05;3.92;;;4.40;99.90;;;;;;4997096;28;20038;-90
2022/04/17 06:15:09;;;;;;;4.60;3.65;;;4.60;99.90;;;;;;4996972;28;20058;-90
2022/04/17 06:17:40;;;;;;;8.02;4.20;;;4.70;99.90;;;;;;4997158;28;20026;-89
2022/04/17 06:20:08;;;;;;;7.45;4.18;;;4.80;99.90;;;;;;5013763;28;20083;-89
2022/04/17 06:22:35;;;;;;;8.10;3.80;;;4.80;99.90;;;;;;4978840;28;20499;-90
2022/04/17 06:25:11;;;;;;;9.75;3.97;;;4.90;99.90;;;;;;4996856;28;20034;-90
2022/04/17 06:27:47;;;;;;;6.93;3.40;;;5.00;99.90;;;;;;4997313;28;20041;-90
2022/04/17 06:30:15;;;;;;;7.30;3.67;;;5.10;99.90;;;;;;4993967;28;20044;-91
2022/04/17 06:32:42;;;;;;;6.10;3.65;;;5.20;99.90;;;;;;5029346;28;20076;-90
2022/04/17 06:35:10;;;;;;;5.25;3.83;;;5.30;99.90;;;;;;5012630;28;20057;-89
2022/04/17 06:37:55;;;;;;;9.77;3.75;;;5.40;99.90;;;;;;4996624;28;20044;-90
2022/04/17 06:40:30;;;;;;;8.23;3.63;;;5.50;99.90;;;;;;4996645;28;20061;-90
2022/04/17 06:42:58;;;;;;;8.82;3.30;;;5.60;99.90;;;;;;4996215;28;20461;-91
2022/04/17 06:45:25;;;;;;;7.47;3.80;;;5.70;99.90;;;;;;4996795;28;20088;-90
2022/04/17 06:47:51;;;;;;;8.25;3.55;;;5.80;99.90;;;;;;4996386;28;20466;-90
2022/04/17 06:50:22;;;;;;;6.57;3.45;;;5.90;99.90;;;;;;4996399;28;20065;-90
2022/04/17 06:52:51;;;;;;;5.07;3.10;;;5.90;99.90;;;;;;5012869;28;20141;-91
2022/04/17 06:55:17;;;;;;;7.22;3.88;;;6.00;99.90;;;;;;4997214;28;20046;-91
2022/04/17 06:57:50;;;;;;;4.90;3.05;;;6.00;99.90;;;;;;4997125;28;20083;-89
2022/04/17 07:00:18;;;;;;;6.13;2.95;;;6.10;99.90;;;;;;4996901;28;20389;-89
2022/04/17 07:02:44;;;;;;;4.38;2.95;;;6.20;99.90;;;;;;5029418;28;20078;-89
2022/04/17 07:05:12;;;;;;;4.13;2.80;;;6.20;99.90;;;;;;4996541;28;20087;-90
2022/04/17 07:07:38;;;;;;;8.27;3.83;;;6.30;99.90;;;;;;5029614;28;20030;-89
2022/04/17 07:10:05;;;;;;;6.43;3.15;;;6.40;99.90;;;;;;4996286;28;20041;-89
2022/04/17 07:12:30;;;;;;;7.25;3.50;;;6.50;99.90;;;;;;5012751;28;20033;-89
2022/04/17 07:14:59;;;;;;;5.75;3.08;;;6.50;99.90;;;;;;4994408;28;20512;-91
2022/04/17 07:17:39;;;;;;;6.20;3.45;;;6.60;99.90;;;;;;4996088;28;20034;-91
2022/04/17 07:20:07;;;;;;;4.95;3.60;;;6.60;99.90;;;;;;4996383;28;20029;-91
2022/04/17 07:22:37;;;;;;;7.13;3.83;;;6.70;99.90;;;;;;4996414;28;20061;-90
2022/04/17 07:25:05;;;;;;;5.97;3.40;;;6.70;99.90;;;;;;5012358;28;20080;-90
2022/04/17 07:27:41;;;;;;;14.60;3.45;;;6.80;99.90;;;;;;4995928;28;20034;-90
2022/04/17 07:30:15;;;;;;;5.28;3.28;;;6.80;99.90;;;;;;4996639;28;20065;-91
2022/04/17 07:32:43;;;;;;;6.60;3.75;;;6.90;99.90;;;;;;4993641;28;20030;-90
2022/04/17 07:35:10;;;;;;;10.07;3.72;;;6.90;99.90;;;;;;5012452;28;20048;-91
2022/04/17 07:37:36;;;;;;;4.28;2.80;;;7.00;99.90;;;;;;4998506;28;20496;-91
2022/04/17 07:40:18;;;;;;;4.30;3.20;;;7.00;99.90;;;;;;5000784;28;20036;-92
2022/04/17 07:42:44;;;;;;;3.80;2.92;;;7.10;99.90;;;;;;4994025;28;20034;-91
2022/04/17 07:45:11;;;;;;;5.05;2.80;;;7.20;99.90;;;;;;4999724;28;20129;-91
2022/04/17 07:47:37;;;;;;;7.13;3.67;;;7.10;99.90;;;;;;4999782;28;20099;-91
2022/04/17 07:50:05;;;;;;;6.35;3.15;;;7.20;99.90;;;;;;4999886;28;20030;-91
2022/04/17 07:52:31;;;;;;;6.25;3.08;;;7.30;99.90;;;;;;4991432;28;20108;-91
2022/04/17 07:54:56;;;;;;;6.25;3.40;;;7.30;99.90;;;;;;4999686;28;20068;-90
2022/04/17 07:57:22;;;;;;;6.65;4.25;;;7.40;99.90;;;;;;5000086;28;20058;-90
2022/04/17 07:59:50;;;;;;;6.38;2.90;;;7.50;99.90;;;;;;5033055;28;20057;-91
2022/04/17 08:02:49;;;;;;;4.78;2.65;;;7.50;99.90;;;;;;5000208;28;20029;-90
2022/04/17 08:05:16;;;;;;;4.05;2.83;;;7.50;99.90;;;;;;5015829;28;20470;-92
2022/04/17 08:07:41;;;;;;;6.50;2.85;;;7.60;99.90;;;;;;5017267;28;20030;-91
2022/04/17 08:10:08;;;;;;;3.95;2.70;;;7.70;99.90;;;;;;4999876;28;20033;-91
2022/04/17 08:12:34;;;;;;;5.43;3.03;;;7.70;99.90;;;;;;5000121;28;20037;-91
2022/04/17 08:15:00;;;;;;;6.05;3.47;;;7.80;99.90;;;;;;4999453;28;20548;-91
2022/04/17 08:17:26;;;;;;;4.13;2.90;;;7.70;99.90;;;;;;4998194;28;20037;-92
2022/04/17 08:19:52;;;;;;;11.02;3.45;;;7.70;99.90;;;;;;4999596;28;20029;-90
2022/04/17 08:22:18;;;;;;;5.35;3.55;;;7.60;99.90;;;;;;5032555;28;20026;-91
2022/04/17 08:24:43;;;;;;;6.50;3.35;;;7.70;99.90;;;;;;5000355;28;20116;-91
2022/04/17 08:27:10;;;;;;;6.20;3.40;;;7.80;99.90;;;;;;4983951;28;20084;-90
2022/04/17 08:29:36;;;;;;;8.00;3.75;;;7.90;99.90;;;;;;5000810;28;20065;-90
2022/04/17 08:32:02;;;;;;;4.60;3.17;;;8.00;99.90;;;;;;4984402;28;20037;-92
2022/04/17 08:34:28;;;;;;;8.23;3.20;;;8.10;99.90;;;;;;5000282;28;20034;-89
2022/04/17 08:36:54;;;;;;;4.95;2.65;;;8.20;99.90;;;;;;4997061;28;20034;-91
2022/04/17 08:39:20;;;;;;;4.00;2.83;;;8.30;99.90;;;;;;4999485;28;20078;-91
2022/04/17 08:41:47;;;;;;;3.95;2.90;;;8.30;99.90;;;;;;4999101;28;20030;-90
2022/04/17 08:44:13;;;;;;;5.28;3.30;;;8.30;99.90;;;;;;4999130;28;20022;-90
2022/04/17 08:46:41;;;;;;;7.95;3.00;;;8.50;99.90;;;;;;4983147;28;20040;-91
2022/04/17 08:49:09;;;;;;;4.57;2.97;;;8.50;99.90;;;;;;4997652;28;20041;-90
2022/04/17 08:51:36;;;;;;;4.30;2.80;;;8.50;99.90;;;;;;4999930;28;20529;-91
2022/04/17 08:54:03;;;;;;;6.85;3.10;;;8.70;99.90;;;;;;4999527;28;20084;-90
2022/04/17 08:56:29;;;;;;;8.15;3.35;;;8.90;99.90;;;;;;4999956;28;20034;-91
2022/04/17 08:58:56;;;;;;;11.50;3.42;;;9.10;99.90;;;;;;4999305;28;20053;-90
2022/04/17 09:01:21;;;;;;;6.30;2.78;;;10.00;99.90;;;;;;5015521;28;20030;-90
2022/04/17 09:03:47;;;;;;;6.88;2.90;;;11.70;99.90;;;;;;4999573;28;20370;-91
2022/04/17 09:06:18;;;;;;;7.90;3.28;;;12.90;98.20;;;;;;4998870;28;20085;-89
2022/04/17 09:09:01;;;;;;;6.45;2.72;;;13.60;93.10;;;;;;5015644;28;20462;-90
2022/04/17 09:11:28;;;;;;;4.60;2.80;;;14.50;87.60;;;;;;4999573;28;20038;-91
2022/04/17 09:13:55;;;;;;;5.47;2.85;;;14.90;81.70;;;;;;5000238;28;20113;-92
2022/04/17 09:16:27;;;;;;;3.70;2.25;;;15.20;74.40;;;;;;4999471;28;20026;-91
2022/04/17 09:18:53;;;;;;;5.07;2.83;;;15.40;73.10;;;;;;4998404;28;20049;-92
2022/04/17 09:21:33;;;;;;;5.32;2.40;;;15.90;72.80;;;;;;4999808;28;20711;-89
2022/04/17 09:24:25;;;;;;;4.28;2.55;;;15.30;67.00;;;;;;4999669;28;20436;-91
2022/04/17 09:26:52;;;;;;;5.63;2.45;;;16.30;66.60;;;;;;4980918;28;20122;-90
2022/04/17 09:29:23;;;;;;;4.57;2.25;;;16.00;62.00;;;;;;5032434;28;20045;-90
2022/04/17 09:32:09;;;;;;;3.38;2.22;;;16.00;64.60;;;;;;4999364;28;20129;-90
2022/04/17 09:34:55;;;;;;;5.95;2.45;;;16.00;62.80;;;;;;4999088;28;20042;-92
2022/04/17 09:37:23;;;;;;;5.05;2.20;;;16.10;65.40;;;;;;5014720;28;20034;-92
2022/04/17 09:39:50;;;;;;;5.07;2.33;;;15.70;61.60;;;;;;4998902;28;20445;-92
2022/04/17 09:42:27;;;;;;;4.80;2.25;;;15.30;63.50;;;;;;5014381;28;20022;-92
2022/04/17 09:44:57;;;;;;;8.15;2.20;;;14.60;62.00;;;;;;4997622;28;20026;-90
2022/04/17 09:47:28;;;;;;;7.82;2.75;;;13.90;65.10;;;;;;4999165;28;20363;-93
2022/04/17 09:50:03;;;;;;;4.75;2.60;;;13.80;64.70;;;;;;5014594;28;20084;-90
2022/04/17 09:52:35;;;;;;;5.38;2.55;;;13.70;67.20;;;;;;4998979;28;20037;-92
2022/04/17 09:55:02;;;;;;;7.35;2.28;;;13.60;69.90;;;;;;4999360;28;20034;-91
2022/04/17 09:57:33;;;;;;;3.95;2.40;;;13.50;68.10;;;;;;4984530;28;20034;-91
2022/04/17 10:00:10;;;;;;;5.37;2.87;;;13.60;67.30;;;;;;4998330;28;20500;-91
2022/04/17 10:02:41;;;;;;;3.63;2.45;;;14.10;68.10;;;;;;4981546;28;20038;-92
2022/04/17 10:05:20;;;;;;;5.07;3.72;;;14.30;67.70;;;;;;5013869;28;20049;-91
2022/04/17 10:07:47;;;;;;;10.75;2.58;;;14.90;67.50;;;;;;4997545;28;20038;-89
2022/04/17 10:10:14;;;;;;;4.22;2.10;;;15.80;62.50;;;;;;4997998;28;20393;-90
2022/04/17 10:12:41;;;;;;;4.47;2.25;;;15.50;63.30;;;;;;4997744;28;20048;-91
2022/04/17 10:15:07;;;;;;;4.70;2.10;;;15.70;62.10;;;;;;4995760;28;20089;-91
2022/04/17 10:17:34;;;;;;;3.20;2.20;;;15.80;60.70;;;;;;4997790;28;20042;-91
2022/04/17 10:20:06;;;;;;;5.88;2.67;;;15.70;61.70;;;;;;5015191;28;20029;-92
2022/04/17 10:22:34;;;;;;;2.47;2.20;;;16.00;60.00;;;;;;4998095;28;20036;-90
2022/04/17 10:25:02;;;;;;;5.80;2.42;;;16.30;61.00;;;;;;4999577;28;20447;-92
2022/04/17 10:27:40;;;;;;;3.90;2.28;;;16.40;58.50;;;;;;4999802;28;20397;-91
2022/04/17 10:30:15;;;;;;;3.92;2.38;;;16.40;56.60;;;;;;4998367;28;20033;-90
2022/04/17 10:33:02;;;;;;;3.20;2.00;;;16.40;58.30;;;;;;4998194;28;20482;-92
2022/04/17 10:35:37;;;;;;;4.75;2.60;;;16.70;57.40;;;;;;5016457;28;20040;-91
2022/04/17 10:38:24;;;;;;;2.65;2.15;;;17.60;58.10;;;;;;5018145;28;20033;-91
2022/04/17 10:41:25;;;;;;;5.97;2.60;;;17.70;56.50;;;;;;5016740;28;20034;-90
2022/04/17 10:43:50;;;;;;;5.57;2.80;;;17.80;54.00;;;;;;4997738;28;20034;-91
2022/04/17 10:46:20;;;;;;;7.20;2.70;;;16.30;56.30;;;;;;5012740;28;20038;-91
2022/04/17 10:48:51;;;;;;;3.38;2.28;;;16.40;58.80;;;;;;5013165;28;20038;-90
2022/04/17 10:51:25;;;;;;;5.68;2.50;;;16.10;59.80;;;;;;4997674;28;20037;-89
2022/04/17 10:54:04;;;;;;;6.18;2.92;;;16.00;61.10;;;;;;4997022;28;20089;-89
2022/04/17 10:56:38;;;;;;;6.07;2.97;;;16.60;60.20;;;;;;4997064;28;20370;-90
2022/04/17 10:59:24;;;;;;;5.05;2.58;;;16.90;58.70;;;;;;4996575;28;20033;-89
2022/04/17 11:01:53;;;;;;;3.38;2.40;;;17.20;58.40;;;;;;4989456;28;20038;-90
2022/04/17 11:04:26;;;;;;;3.47;2.30;;;16.60;60.10;;;;;;4996879;28;20030;-89
2022/04/17 11:07:21;;;;;;;4.75;2.42;;;16.80;59.10;;;;;;5013310;28;20084;-90
2022/04/17 11:09:47;;;;;;;3.40;2.20;;;17.10;57.60;;;;;;5006937;28;20037;-90
2022/04/17 11:12:20;;;;;;;4.50;2.28;;;16.90;56.80;;;;;;5016182;28;20033;-90
2022/04/17 11:15:17;;;;;;;4.40;3.00;;;16.40;57.50;;;;;;5000913;28;20532;-90
2022/04/17 11:17:43;;;;;;;6.07;2.90;;;15.80;56.80;;;;;;4984079;28;20030;-89
2022/04/17 11:20:10;;;;;;;7.32;2.70;;;15.00;57.30;;;;;;5000625;28;20034;-91
2022/04/17 11:22:38;;;;;;;3.88;2.90;;;15.10;58.00;;;;;;5017447;28;20053;-90
2022/04/17 11:25:09;;;;;;;3.97;2.60;;;14.80;57.70;;;;;;5000752;28;20026;-90
2022/04/17 11:27:41;;;;;;;2.75;2.13;;;14.80;59.50;;;;;;5000054;28;20037;-90
2022/04/17 11:30:27;;;;;;;5.85;2.40;;;15.00;58.80;;;;;;5000559;28;20048;-90
2022/04/17 11:32:54;;;;;;;4.55;2.50;;;14.80;58.80;;;;;;4983583;28;20084;-90
2022/04/17 11:35:23;;;;;;;6.82;2.22;;;15.40;58.30;;;;;;5000835;28;20029;-91
2022/04/17 11:37:52;;;;;;;3.75;2.67;;;16.40;59.70;;;;;;5000438;28;20040;-90
2022/04/17 11:40:19;;;;;;;5.80;2.50;;;16.50;56.50;;;;;;4996979;28;20030;-91
2022/04/17 11:42:53;;;;;;;5.40;2.65;;;17.00;56.90;;;;;;5000128;28;20069;-90
2022/04/17 11:45:35;;;;;;;4.93;2.40;;;17.60;55.20;;;;;;5002389;28;20022;-90
2022/04/17 11:48:07;;;;;;;2.53;1.88;;;17.30;54.10;;;;;;5000144;28;20037;-90
2022/04/17 11:50:33;;;;;;;4.70;2.03;;;17.20;56.10;;;;;;5000660;28;20034;-90
2022/04/17 11:53:02;;;;;;;3.70;2.22;;;17.70;56.40;;;;;;4999958;28;20378;-90
2022/04/17 11:55:36;;;;;;;5.15;2.30;;;18.30;55.40;;;;;;4999628;28;20026;-91
2022/04/17 11:58:02;;;;;;;5.57;2.25;;;18.20;55.70;;;;;;4999922;28;20037;-90
2022/04/17 12:00:29;;;;;;;3.78;2.20;;;17.90;52.20;;;;;;5000028;28;20124;-91
2022/04/17 12:02:57;;;;;;;5.90;2.10;;;17.90;53.90;;;;;;5001493;28;20072;-91
2022/04/17 12:05:23;;;;;;;4.22;2.25;;;17.50;54.70;;;;;;4999402;28;20022;-90
2022/04/17 12:07:57;;;;;;;6.70;2.33;;;16.70;55.60;;;;;;4999226;28;20040;-90
2022/04/17 12:10:23;;;;;;;2.83;1.83;;;16.50;58.50;;;;;;4999203;28;20029;-90
2022/04/17 12:12:49;;;;;;;4.35;2.15;;;16.80;52.50;;;;;;4999697;28;20744;-91
2022/04/17 12:15:15;;;;;;;2.80;2.10;;;16.30;55.00;;;;;;4999217;28;20042;-90
2022/04/17 12:17:41;;;;;;;5.90;3.35;;;15.90;51.50;;;;;;4998921;28;20092;-90
2022/04/17 12:20:08;;;;;;;4.97;2.50;;;15.20;54.10;;;;;;5015638;28;20462;-90
2022/04/17 12:22:36;;;;;;;4.07;1.90;;;15.00;54.40;;;;;;5016851;28;20040;-89
2022/04/17 12:25:02;;;;;;;6.35;2.40;;;14.90;57.00;;;;;;5000054;28;20042;-89
2022/04/17 12:27:28;;;;;;;2.83;1.95;;;14.50;54.40;;;;;;5000126;28;20030;-90
2022/04/17 12:29:56;;;;;;;2.72;2.20;;;14.60;52.10;;;;;;5015653;28;20117;-89
2022/04/17 12:32:29;;;;;;;3.03;1.88;;;14.80;54.00;;;;;;4999272;28;20489;-89
2022/04/17 12:35:04;;;;;;;2.88;2.22;;;14.80;57.30;;;;;;5016218;28;20394;-92
2022/04/17 12:37:32;;;;;;;2.40;1.73;;;14.90;57.10;;;;;;4999721;28;20080;-90
2022/04/17 12:40:17;;;;;;;3.78;1.92;;;14.80;56.60;;;;;;5016436;28;20033;-90
2022/04/17 12:42:43;;;;;;;3.65;1.95;;;14.90;59.10;;;;;;5000815;28;20034;-91
2022/04/17 12:45:10;;;;;;;4.85;1.63;;;14.70;55.00;;;;;;5000387;28;20465;-90
2022/04/17 12:47:38;;;;;;;7.25;2.03;;;14.60;53.00;;;;;;4997810;28;20030;-91
2022/04/17 12:50:11;;;;;;;4.13;2.35;;;14.70;53.30;;;;;;4999409;28;20029;-91
2022/04/17 12:52:39;;;;;;;5.15;2.22;;;14.80;54.90;;;;;;4999569;28;20045;-91
2022/04/17 12:55:12;;;;;;;4.05;2.58;;;14.80;56.40;;;;;;5016258;28;20030;-92
2022/04/17 12:57:38;;;;;;;4.57;2.50;;;15.10;56.10;;;;;;5014876;28;20037;-92
2022/04/17 13:00:16;;;;;;;4.50;2.40;;;15.50;56.20;;;;;;5015355;28;20128;-91
2022/04/17 13:02:42;;;;;;;4.15;2.47;;;15.50;56.00;;;;;;4998425;28;20026;-91
2022/04/17 13:05:08;;;;;;;4.32;2.50;;;15.40;55.50;;;;;;4997214;28;20026;-90
2022/04/17 13:07:35;;;;;;;3.53;2.05;;;15.70;56.00;;;;;;4998446;28;20030;-89
2022/04/17 13:10:04;;;;;;;2.22;2.00;;;16.00;54.60;;;;;;4998650;28;20044;-90
2022/04/17 13:12:31;;;;;;;3.72;2.00;;;16.40;53.20;;;;;;4998682;28;20040;-89
2022/04/17 13:14:58;;;;;;;3.28;2.17;;;16.30;52.80;;;;;;4998522;28;20038;-89